Time;durP1;ratioP1;P1;durP2;ratioP2;P2;SDS_P1;SDS_P2;PMS_P1;PMS_P2;Temp;Humidity;BMP_temperature;BMP_pressure;BME280_temperature;BME280_humidity;BME280_pressure;Samples;Min_cycle;Max_cycle;Signal;HPM_P1;HPM_P2
2022/06/15 00:01:30;;;;;;;2.57;2.10;;;;;;;15.74;50.88;100156.69;5040367;28;20355;-67
2022/06/15 00:03:56;;;;;;;2.10;1.50;;;;;;;15.80;50.54;100159.66;5051083;28;20231;-67
2022/06/15 00:06:26;;;;;;;3.00;1.47;;;;;;;15.85;50.43;100151.56;5049551;28;20181;-68
2022/06/15 00:08:55;;;;;;;1.70;1.60;;;;;;;15.75;51.25;100163.53;5051140;28;20178;-66
2022/06/15 00:11:22;;;;;;;1.77;1.40;;;;;;;15.69;52.06;100159.66;5039960;28;20229;-67
2022/06/15 00:13:48;;;;;;;2.80;1.80;;;;;;;15.65;52.38;100160.81;5049865;28;20204;-67
2022/06/15 00:16:14;;;;;;;3.33;2.30;;;;;;;15.61;52.72;100156.81;5050139;28;20602;-67
2022/06/15 00:18:44;;;;;;;3.53;1.90;;;;;;;15.60;52.59;100157.75;5051002;28;20313;-68
2022/06/15 00:21:10;;;;;;;2.17;1.60;;;;;;;15.50;52.90;100155.00;5033224;28;20235;-67
2022/06/15 00:23:35;;;;;;;2.70;1.70;;;;;;;15.47;52.68;100152.66;5050341;28;20193;-66
2022/06/15 00:26:00;;;;;;;2.70;1.57;;;;;;;15.53;53.44;100156.53;5050657;28;20577;-67
2022/06/15 00:28:26;;;;;;;2.47;1.60;;;;;;;15.45;53.81;100157.13;5051060;28;20197;-67
2022/06/15 00:30:52;;;;;;;2.13;1.70;;;;;;;15.49;53.16;100164.56;5040176;28;20251;-68
2022/06/15 00:33:19;;;;;;;4.63;1.77;;;;;;;15.38;53.73;100158.50;5040124;28;20181;-67
2022/06/15 00:35:57;;;;;;;2.70;1.80;;;;;;;15.28;54.69;100147.97;5050601;28;20621;-67
2022/06/15 00:38:43;;;;;;;4.67;1.90;;;;;;;15.19;54.63;100144.31;5053499;28;20197;-66
2022/06/15 00:41:15;;;;;;;1.90;1.57;;;;;;;15.15;55.15;100146.28;5038167;28;20256;-67
2022/06/15 00:43:52;;;;;;;1.50;1.40;;;;;;;15.11;55.59;100137.09;5046848;28;20173;-67
2022/06/15 00:46:30;;;;;;;5.77;1.37;;;;;;;15.09;56.57;100138.16;5054339;28;20182;-67
2022/06/15 00:49:08;;;;;;;2.70;1.70;;;;;;;14.97;57.13;100142.44;5053399;28;20239;-66
2022/06/15 00:51:34;;;;;;;2.60;1.70;;;;;;;14.94;58.26;100137.50;5043589;28;20224;-67
2022/06/15 00:54:00;;;;;;;3.63;1.60;;;;;;;14.90;58.75;100144.66;5040554;28;20633;-68
2022/06/15 00:56:28;;;;;;;2.40;1.50;;;;;;;14.85;59.76;100136.41;5054454;28;20189;-68
2022/06/15 00:58:57;;;;;;;1.53;1.40;;;;;;;14.74;60.76;100131.19;5054580;28;20177;-68
2022/06/15 01:01:23;;;;;;;1.43;1.33;;;;;;;14.61;61.77;100139.78;5043914;28;20225;-67
2022/06/15 01:03:51;;;;;;;3.37;1.60;;;;;;;14.65;62.71;100137.84;5054085;28;20189;-67
2022/06/15 01:06:23;;;;;;;3.10;1.60;;;;;;;14.63;62.63;100137.09;5053752;28;20387;-66
2022/06/15 01:08:58;;;;;;;2.37;1.60;;;;;;;14.59;63.10;100133.06;5054984;28;20182;-68
2022/06/15 01:11:45;;;;;;;4.03;1.70;;;;;;;14.56;64.40;100141.03;5027780;28;20314;-67
2022/06/15 01:14:37;;;;;;;1.87;1.43;;;;;;;14.35;64.40;100133.84;5051565;28;20200;-68
2022/06/15 01:17:02;;;;;;;2.70;1.40;;;;;;;14.39;63.45;100137.03;5052030;28;20224;-68
2022/06/15 01:19:46;;;;;;;2.43;1.50;;;;;;;14.30;62.81;100130.75;5053811;28;20253;-67
2022/06/15 01:22:29;;;;;;;5.20;1.73;;;;;;;14.21;63.14;100132.22;5043102;28;20312;-67
2022/06/15 01:25:25;;;;;;;2.60;1.47;;;;;;;14.25;62.41;100135.41;5052572;28;20195;-67
2022/06/15 01:28:15;;;;;;;1.70;1.47;;;;;;;14.13;62.74;100134.53;5053656;28;20213;-68
2022/06/15 01:30:52;;;;;;;1.37;1.27;;;;;;;14.12;62.92;100133.69;5043717;28;20521;-67
2022/06/15 01:33:29;;;;;;;6.93;1.40;;;;;;;14.09;63.19;100128.72;5053141;28;20212;-67
2022/06/15 01:36:00;;;;;;;2.27;1.40;;;;;;;14.12;63.82;100132.88;5052762;28;20181;-67
2022/06/15 01:39:10;;;;;;;3.73;1.70;;;;;;;14.03;63.68;100132.56;5053833;28;20238;-67
2022/06/15 01:41:49;;;;;;;3.33;1.40;;;;;;;14.01;64.67;100131.00;5038840;28;20339;-68
2022/06/15 01:44:24;;;;;;;4.20;1.43;;;;;;;13.92;65.74;100129.88;5044393;28;20185;-68
2022/06/15 01:46:49;;;;;;;3.67;1.40;;;;;;;13.94;64.84;100128.03;5053082;28;20215;-67
2022/06/15 01:49:26;;;;;;;3.07;1.67;;;;;;;13.92;64.77;100135.06;5053561;28;20189;-67
2022/06/15 01:51:52;;;;;;;2.47;1.73;;;;;;;13.99;64.86;100130.28;5042690;28;20221;-68
2022/06/15 01:54:24;;;;;;;1.83;1.60;;;;;;;13.94;65.44;100125.44;5039284;28;20224;-68
2022/06/15 01:56:52;;;;;;;2.00;1.77;;;;;;;13.91;64.81;100127.41;5053437;28;20181;-68
2022/06/15 01:59:30;;;;;;;2.03;1.80;;;;;;;13.86;64.31;100125.94;5053437;28;20177;-67
2022/06/15 02:02:14;;;;;;;2.37;1.80;;;;;;;13.84;64.35;100121.81;5042258;28;20236;-67
2022/06/15 02:04:49;;;;;;;3.03;1.63;;;;;;;13.94;64.41;100127.19;5040043;28;20177;-67
2022/06/15 02:07:29;;;;;;;2.77;1.67;;;;;;;13.92;64.48;100119.53;5051567;28;20180;-68
2022/06/15 02:10:04;;;;;;;4.93;1.50;;;;;;;13.86;65.43;100122.53;5043620;28;20639;-68
2022/06/15 02:12:44;;;;;;;2.97;1.70;;;;;;;13.87;65.30;100125.00;5041566;28;20551;-67
2022/06/15 02:15:14;;;;;;;2.50;1.60;;;;;;;13.86;65.63;100110.41;5053410;28;20189;-67
2022/06/15 02:17:44;;;;;;;2.67;2.10;;;;;;;13.88;65.70;100116.31;5052548;28;20189;-68
2022/06/15 02:20:15;;;;;;;2.57;1.83;;;;;;;13.92;65.69;100111.78;5042863;28;20221;-67
2022/06/15 02:22:41;;;;;;;3.07;1.90;;;;;;;13.98;65.70;100113.94;5051960;28;20269;-68
2022/06/15 02:25:12;;;;;;;2.73;1.70;;;;;;;13.99;65.74;100117.34;5051763;28;20201;-67
2022/06/15 02:27:40;;;;;;;6.20;2.33;;;;;;;13.88;66.71;100112.94;5052453;28;20237;-67
2022/06/15 02:30:11;;;;;;;2.10;1.70;;;;;;;13.75;67.23;100106.94;5042918;28;20206;-68
2022/06/15 02:32:38;;;;;;;2.60;1.80;;;;;;;13.78;67.72;100111.88;5051788;28;20284;-68
2022/06/15 02:35:04;;;;;;;2.37;2.13;;;;;;;13.81;67.15;100106.50;5052713;28;20668;-67
2022/06/15 02:37:30;;;;;;;3.33;2.00;;;;;;;13.79;67.24;100104.03;5052151;28;20219;-67
2022/06/15 02:39:55;;;;;;;7.63;2.37;;;;;;;13.71;67.71;100114.88;5051192;28;20177;-67
2022/06/15 02:42:26;;;;;;;2.57;1.90;;;;;;;13.58;68.45;100108.06;5034257;28;20236;-67
2022/06/15 02:44:56;;;;;;;6.10;2.43;;;;;;;13.45;69.95;100110.66;5048301;28;20185;-68
2022/06/15 02:47:24;;;;;;;2.10;1.90;;;;;;;13.50;69.59;100109.41;5050980;28;20208;-68
2022/06/15 02:49:51;;;;;;;5.70;1.73;;;;;;;13.63;68.62;100111.16;5052665;28;20268;-68
2022/06/15 02:52:20;;;;;;;3.77;2.43;;;;;;;13.72;68.10;100107.97;5037976;28;20588;-67
2022/06/15 02:54:52;;;;;;;3.43;1.87;;;;;;;13.79;67.66;100109.22;5040366;28;20185;-68
2022/06/15 02:57:19;;;;;;;2.27;1.77;;;;;;;13.80;67.84;100102.28;5051939;28;20538;-68
2022/06/15 02:59:45;;;;;;;3.67;2.30;;;;;;;13.84;68.08;100111.47;5051478;28;20535;-68
2022/06/15 03:02:14;;;;;;;3.00;1.97;;;;;;;13.82;67.99;100114.16;5031152;28;20217;-68
2022/06/15 03:04:41;;;;;;;1.97;1.80;;;;;;;13.76;68.18;100116.34;5052272;28;20204;-68
2022/06/15 03:07:06;;;;;;;2.73;2.07;;;;;;;13.76;68.60;100114.56;5051154;28;20223;-67
2022/06/15 03:09:32;;;;;;;3.27;1.97;;;;;;;13.74;68.69;100118.19;5051628;28;20186;-67
2022/06/15 03:11:57;;;;;;;3.00;2.07;;;;;;;13.79;68.66;100119.56;5040761;28;20236;-67
2022/06/15 03:14:22;;;;;;;2.73;2.10;;;;;;;13.75;68.54;100123.25;5050133;28;20189;-68
2022/06/15 03:16:49;;;;;;;5.27;2.10;;;;;;;13.67;69.05;100125.56;5040447;28;20251;-68
2022/06/15 03:19:15;;;;;;;3.13;2.03;;;;;;;13.76;69.23;100124.91;5046032;28;20235;-68
2022/06/15 03:21:41;;;;;;;2.70;2.00;;;;;;;13.76;69.08;100132.66;5040702;28;20571;-67
2022/06/15 03:24:06;;;;;;;2.87;2.03;;;;;;;13.79;69.65;100129.06;5051782;28;20193;-59
2022/06/15 03:26:32;;;;;;;4.80;2.17;;;;;;;13.72;68.77;100119.13;5049712;28;20204;-59
2022/06/15 03:28:58;;;;;;;2.67;1.73;;;;;;;13.80;68.41;100125.53;5050422;28;20185;-60
2022/06/15 03:31:23;;;;;;;6.80;2.00;;;;;;;13.93;67.76;100122.94;5009445;28;20240;-60
2022/06/15 03:33:48;;;;;;;2.33;1.70;;;;;;;13.97;67.83;100124.41;5045565;28;20181;-60
2022/06/15 03:36:14;;;;;;;2.67;2.07;;;;;;;13.93;67.85;100131.53;5050683;28;20217;-59
2022/06/15 03:38:39;;;;;;;2.60;1.93;;;;;;;13.89;68.00;100119.72;5051769;28;20220;-60
2022/06/15 03:41:05;;;;;;;4.03;2.00;;;;;;;13.85;68.13;100123.47;5040783;28;20235;-58
2022/06/15 03:43:30;;;;;;;3.20;2.10;;;;;;;13.76;68.48;100118.94;5050362;28;20551;-59
2022/06/15 03:45:56;;;;;;;2.63;1.43;;;;;;;13.80;67.68;100117.78;5051467;28;20239;-59
2022/06/15 03:48:22;;;;;;;3.50;1.43;;;;;;;14.08;67.27;100121.06;5051017;28;20191;-61
2022/06/15 03:50:48;;;;;;;2.23;1.90;;;;;;;14.25;66.91;100125.06;5036577;28;20702;-59
2022/06/15 03:53:13;;;;;;;2.97;1.87;;;;;;;14.38;65.82;100119.88;5039866;28;20248;-59
2022/06/15 03:55:40;;;;;;;3.00;1.60;;;;;;;14.48;65.12;100119.09;5046184;28;20235;-59
2022/06/15 03:58:05;;;;;;;3.17;1.87;;;;;;;14.72;65.67;100125.28;5049528;28;20170;-59
2022/06/15 04:00:32;;;;;;;5.00;2.00;;;;;;;14.79;64.36;100124.72;5044504;28;20293;-58
2022/06/15 04:02:58;;;;;;;1.80;1.43;;;;;;;14.60;65.52;100121.75;5049800;28;20169;-59
2022/06/15 04:05:37;;;;;;;6.13;2.00;;;;;;;14.66;65.01;100118.75;5050619;28;20223;-60
2022/06/15 04:10:46;;;;;;;2.93;1.70;;;;;;;14.88;63.17;100115.44;5040327;28;20243;-59
2022/06/15 04:13:14;;;;;;;2.27;1.83;;;;;;;15.03;62.39;100121.28;5050261;28;20205;-60
2022/06/15 04:15:39;;;;;;;3.70;1.70;;;;;;;15.24;61.05;100111.09;5049514;28;20230;-58
2022/06/15 04:18:04;;;;;;;5.07;2.00;;;;;;;15.59;58.68;100112.00;5050185;28;20597;-59
2022/06/15 04:20:33;;;;;;;3.77;2.23;;;;;;;15.85;57.61;100111.81;5040941;28;20248;-59
2022/06/15 04:22:59;;;;;;;2.67;1.60;;;;;;;16.08;55.73;100117.84;5050073;28;20185;-59
2022/06/15 04:25:25;;;;;;;5.13;1.97;;;;;;;16.26;55.39;100107.78;5049824;28;20173;-58
2022/06/15 04:27:50;;;;;;;2.73;2.00;;;;;;;16.23;54.89;100114.03;5050144;28;20208;-59
2022/06/15 04:30:16;;;;;;;3.00;1.90;;;;;;;16.37;54.60;100115.56;5040476;28;20181;-58
2022/06/15 04:32:41;;;;;;;2.43;1.57;;;;;;;16.51;54.44;100124.03;5049867;28;20213;-59
2022/06/15 04:35:07;;;;;;;3.37;1.80;;;;;;;16.40;53.71;100119.69;5051249;28;20648;-59
2022/06/15 04:37:32;;;;;;;6.10;2.37;;;;;;;16.49;54.05;100120.75;5050471;28;20194;-59
2022/06/15 04:39:57;;;;;;;2.07;1.70;;;;;;;16.51;54.34;100119.69;5050826;28;20180;-59
2022/06/15 04:42:23;;;;;;;2.17;1.90;;;;;;;16.56;54.07;100116.69;5039473;28;20601;-57
2022/06/15 04:44:48;;;;;;;4.50;2.33;;;;;;;16.64;53.33;100116.91;5050608;28;20192;-59
2022/06/15 04:47:13;;;;;;;2.50;1.83;;;;;;;16.74;52.67;100115.22;5050270;28;20192;-58
2022/06/15 04:49:38;;;;;;;3.87;1.73;;;;;;;16.97;52.38;100117.78;5050788;28;20189;-58
2022/06/15 04:52:04;;;;;;;4.17;1.63;;;;;;;17.16;52.04;100122.28;5038297;28;20225;-58
2022/06/15 04:54:30;;;;;;;3.87;2.10;;;;;;;17.27;51.97;100117.03;5037861;28;20189;-58
2022/06/15 04:56:55;;;;;;;2.10;1.43;;;;;;;17.32;50.86;100127.06;5050424;28;20631;-58
2022/06/15 04:59:20;;;;;;;4.73;1.60;;;;;;;17.45;50.66;100121.66;5050710;28;20189;-59
2022/06/15 05:01:46;;;;;;;3.47;1.97;;;;;;;17.68;50.26;100126.72;5038945;28;21075;-60
2022/06/15 05:04:11;;;;;;;2.17;1.57;;;;;;;17.55;50.04;100121.72;5050433;28;20193;-58
2022/06/15 05:06:39;;;;;;;6.57;1.93;;;;;;;17.59;49.75;100123.13;5050399;28;20177;-58
2022/06/15 05:09:07;;;;;;;4.47;1.47;;;;;;;17.66;50.01;100123.41;5049613;28;20280;-59
2022/06/15 05:11:33;;;;;;;2.17;1.67;;;;;;;17.68;49.22;100124.94;5029796;28;20221;-57
2022/06/15 05:13:59;;;;;;;3.20;1.67;;;;;;;17.75;49.61;100125.25;5050261;28;20183;-59
2022/06/15 05:16:25;;;;;;;2.27;1.50;;;;;;;17.94;48.79;100129.75;5050264;28;20185;-58
2022/06/15 05:18:51;;;;;;;3.93;1.70;;;;;;;18.19;48.08;100127.63;5049187;28;20248;-58
2022/06/15 05:21:16;;;;;;;2.53;1.40;;;;;;;18.14;47.62;100137.63;5032430;28;20224;-59
2022/06/15 05:23:41;;;;;;;5.87;1.60;;;;;;;18.19;47.65;100131.06;5053800;28;20186;-59
2022/06/15 05:26:07;;;;;;;3.83;1.50;;;;;;;18.30;47.02;100134.53;5053568;28;20181;-58
2022/06/15 05:28:32;;;;;;;3.63;1.67;;;;;;;18.36;46.64;100140.03;5052590;28;20686;-60
2022/06/15 05:31:18;;;;;;;5.20;1.70;;;;;;;18.43;46.54;100135.13;5043553;28;20237;-59
2022/06/15 05:33:43;;;;;;;4.00;2.40;;;;;;;18.83;46.01;100139.41;5034501;28;20184;-59
2022/06/15 05:36:13;;;;;;;5.33;1.50;;;;;;;18.86;45.44;100146.13;5053564;28;20178;-59
2022/06/15 05:38:39;;;;;;;2.80;1.87;;;;;;;18.69;45.40;100134.59;5052694;28;20182;-58
2022/06/15 05:41:05;;;;;;;2.80;1.50;;;;;;;18.74;45.62;100136.78;5036898;28;20307;-59
2022/06/15 05:43:33;;;;;;;4.30;1.93;;;;;;;19.05;45.29;100129.69;5053014;28;20252;-59
2022/06/15 05:45:59;;;;;;;2.43;1.50;;;;;;;19.39;44.63;100136.22;5052557;28;20182;-62
2022/06/15 05:48:24;;;;;;;5.43;1.57;;;;;;;19.56;44.25;100129.47;5053710;28;20247;-59
2022/06/15 05:50:49;;;;;;;4.97;1.67;;;;;;;20.04;43.00;100127.69;5043557;28;20236;-59
2022/06/15 05:53:15;;;;;;;5.40;1.73;;;;;;;20.16;42.14;100132.56;5042355;28;20247;-59
2022/06/15 05:55:40;;;;;;;7.03;1.60;;;;;;;19.88;42.08;100131.72;5050079;28;20708;-59
2022/06/15 05:58:05;;;;;;;2.30;1.70;;;;;;;20.03;41.79;100136.50;5053162;28;20235;-60
2022/06/15 06:00:31;;;;;;;2.70;1.60;;;;;;;20.24;41.20;100138.88;5042492;28;20244;-58
2022/06/15 06:02:57;;;;;;;3.73;1.70;;;;;;;20.60;40.51;100141.53;5052773;28;20547;-59
2022/06/15 06:05:23;;;;;;;3.53;1.50;;;;;;;20.61;39.66;100138.75;5050140;28;20198;-63
2022/06/15 06:07:48;;;;;;;2.20;1.30;;;;;;;20.70;39.38;100139.69;5051228;28;20245;-59
2022/06/15 06:10:14;;;;;;;4.13;1.70;;;;;;;21.44;38.26;100135.06;5041514;28;20185;-59
2022/06/15 06:12:39;;;;;;;2.97;1.50;;;;;;;21.63;38.13;100133.22;5031774;28;20216;-59
2022/06/15 06:15:05;;;;;;;7.07;1.53;;;;;;;21.91;37.06;100136.50;5050810;28;20181;-58
2022/06/15 06:17:30;;;;;;;3.77;1.57;;;;;;;21.88;36.87;100134.19;5064042;28;20260;-59
2022/06/15 06:19:55;;;;;;;5.20;1.83;;;;;;;22.00;37.00;100129.50;5052140;28;20256;-58
2022/06/15 06:22:21;;;;;;;3.67;1.50;;;;;;;22.16;36.97;100127.91;5055460;28;20698;-60
2022/06/15 06:24:46;;;;;;;2.80;1.60;;;;;;;22.64;35.94;100133.47;5058873;28;20185;-59
2022/06/15 06:27:14;;;;;;;2.17;1.67;;;;;;;22.46;36.48;100133.59;5051667;28;20197;-60
2022/06/15 06:29:40;;;;;;;8.50;1.63;;;;;;;23.27;34.63;100132.03;5050709;28;20203;-58
2022/06/15 06:32:06;;;;;;;7.03;1.90;;;;;;;23.67;34.26;100137.38;5056172;28;20299;-60
2022/06/15 06:34:31;;;;;;;2.87;1.40;;;;;;;23.68;33.76;100126.69;5048159;28;20185;-60
2022/06/15 06:36:59;;;;;;;2.33;1.50;;;;;;;23.60;34.03;100139.84;5051112;28;20178;-59
2022/06/15 06:39:28;;;;;;;3.33;1.53;;;;;;;23.57;34.14;100140.19;5050375;28;20201;-59
2022/06/15 06:41:55;;;;;;;5.20;1.60;;;;;;;23.83;33.75;100133.88;5033540;28;20310;-58
2022/06/15 06:44:21;;;;;;;4.93;1.80;;;;;;;24.04;33.40;100140.38;5049688;28;20185;-59
2022/06/15 06:46:48;;;;;;;7.53;2.27;;;;;;;24.32;32.79;100140.75;5052158;28;20193;-59
2022/06/15 06:49:14;;;;;;;3.17;1.60;;;;;;;24.50;33.17;100140.47;5048492;28;20189;-59
2022/06/15 06:51:41;;;;;;;4.60;1.73;;;;;;;24.13;33.80;100142.00;5026577;28;20673;-59
2022/06/15 06:54:09;;;;;;;4.53;1.73;;;;;;;24.74;33.26;100142.13;5054199;28;20184;-59
2022/06/15 06:56:35;;;;;;;3.97;1.70;;;;;;;25.70;31.81;100146.06;5050058;28;20177;-58
2022/06/15 06:59:00;;;;;;;8.73;1.95;;;;;;;25.82;31.62;100154.34;5055323;28;20493;-58
2022/06/15 07:01:26;;;;;;;3.45;1.80;;;;;;;25.88;31.31;100151.78;5030160;28;20673;-59
2022/06/15 07:03:51;;;;;;;5.22;2.03;;;;;;;26.90;29.67;100157.19;5045479;28;20181;-60
2022/06/15 07:06:17;;;;;;;12.00;2.58;;;;;;;26.89;29.10;100158.19;5049491;28;20489;-60
2022/06/15 07:08:42;;;;;;;6.88;1.98;;;;;;;27.23;28.93;100154.03;5051233;28;20890;-71
2022/06/15 07:11:17;;;;;;;3.40;2.03;;;;;;;27.97;28.16;100159.75;5054951;28;20718;-72
2022/06/15 07:13:44;;;;;;;5.38;2.03;;;;;;;28.50;27.24;100153.84;5064190;28;20185;-70
2022/06/15 07:16:12;;;;;;;4.70;2.10;;;;;;;27.46;28.13;100164.38;5038710;28;20287;-69
2022/06/15 07:18:37;;;;;;;5.43;2.47;;;;;;;27.23;28.60;100160.09;5047893;28;20253;-70
2022/06/15 07:21:04;;;;;;;4.22;1.92;;;;;;;27.02;29.09;100160.16;5040526;28;20260;-71
2022/06/15 07:23:30;;;;;;;8.20;1.77;;;;;;;26.60;30.26;100154.66;5047786;28;20227;-70
2022/06/15 07:25:56;;;;;;;4.38;1.67;;;;;;;26.64;29.96;100155.91;5044871;28;20247;-73
2022/06/15 07:28:22;;;;;;;4.22;2.00;;;;;;;26.42;30.42;100161.19;5052445;28;20209;-73
2022/06/15 07:30:48;;;;;;;5.38;1.63;;;;;;;26.97;29.29;100165.19;5015336;28;20225;-68
2022/06/15 07:33:15;;;;;;;5.97;1.90;;;;;;;27.66;29.00;100166.28;5038684;28;20265;-68
2022/06/15 07:35:41;;;;;;;4.30;1.85;;;;;;;27.58;28.83;100159.34;5049926;28;20213;-70
2022/06/15 07:38:08;;;;;;;4.22;1.90;;;;;;;27.15;29.53;100168.19;5056381;28;20224;-70
2022/06/15 07:40:33;;;;;;;9.93;1.85;;;;;;;26.64;30.00;100166.47;5044517;28;20571;-68
2022/06/15 07:42:59;;;;;;;8.02;2.00;;;;;;;25.50;32.58;100167.66;5050021;28;20190;-70
2022/06/15 07:45:25;;;;;;;3.53;1.90;;;;;;;25.05;33.03;100166.75;5037000;28;20180;-68
2022/06/15 07:50:36;;;;;;;4.68;2.05;;;;;;;25.25;32.31;100162.59;5042798;28;20235;-75
2022/06/15 07:53:04;;;;;;;3.95;1.58;;;;;;;25.44;32.00;100163.13;5041500;28;20206;-71
2022/06/15 07:55:33;;;;;;;6.10;2.30;;;;;;;25.48;32.13;100160.94;5050877;28;20651;-70
2022/06/15 07:58:00;;;;;;;4.07;2.00;;;;;;;25.19;33.27;100159.88;5051382;28;20174;-72
2022/06/15 08:00:26;;;;;;;8.55;2.25;;;;;;;24.78;33.77;100161.03;5042171;28;20229;-71
2022/06/15 08:02:52;;;;;;;4.22;2.03;;;;;;;24.41;35.23;100166.00;5051423;28;20185;-69
2022/06/15 08:05:18;;;;;;;15.45;2.15;;;;;;;25.56;32.38;100163.50;5053693;28;20264;-68
2022/06/15 08:07:45;;;;;;;9.77;1.88;;;;;;;27.87;29.75;100168.03;5047168;28;20182;-69
2022/06/15 08:10:14;;;;;;;4.93;1.73;;;;;;;29.13;27.90;100164.09;5031644;28;20200;-69
2022/06/15 08:12:40;;;;;;;4.40;2.35;;;;;;;29.65;26.58;100163.44;5039461;28;20194;-70
2022/06/15 08:15:06;;;;;;;3.67;2.00;;;;;;;30.82;25.57;100170.44;5051303;28;20690;-71
2022/06/15 08:17:38;;;;;;;7.32;2.03;;;;;;;29.99;25.76;100158.03;5050510;28;20633;-68
2022/06/15 08:20:20;;;;;;;6.60;3.10;;;;;;;30.59;25.03;100157.75;5043896;28;20213;-70
2022/06/15 08:22:49;;;;;;;8.30;2.08;;;;;;;32.37;22.91;100160.91;5036444;28;20202;-71
2022/06/15 08:25:20;;;;;;;6.85;2.10;;;;;;;31.73;24.23;100158.59;5052224;28;20177;-70
2022/06/15 08:27:46;;;;;;;3.00;1.98;;;;;;;31.39;24.63;100156.28;5051370;28;20236;-70
2022/06/15 08:30:13;;;;;;;8.60;2.22;;;;;;;31.98;23.47;100154.00;5043738;28;20181;-69
2022/06/15 08:32:39;;;;;;;6.80;2.30;;;;;;;32.01;23.75;100161.50;5067942;28;20292;-68
2022/06/15 08:35:06;;;;;;;4.53;2.10;;;;;;;33.52;21.43;100156.16;5056993;28;20173;-73
2022/06/15 08:37:32;;;;;;;5.05;2.10;;;;;;;34.88;20.08;100156.53;5049036;28;20191;-69
2022/06/15 08:39:58;;;;;;;4.95;2.33;;;;;;;34.34;20.88;100162.28;5040910;28;20184;-69
2022/06/15 08:42:43;;;;;;;9.52;2.85;;;;;;;32.12;23.07;100164.47;5046152;28;20226;-68
2022/06/15 08:45:31;;;;;;;5.45;2.20;;;;;;;31.84;23.15;100155.19;5049658;28;20216;-68
2022/06/15 08:48:11;;;;;;;4.90;1.95;;;;;;;32.48;22.23;100147.59;5052164;28;20169;-67
2022/06/15 08:50:46;;;;;;;6.15;2.53;;;;;;;33.50;22.01;100160.09;5035718;28;20252;-69
2022/06/15 08:53:30;;;;;;;5.35;2.78;;;;;;;32.83;22.17;100152.22;5040342;28;20262;-71
2022/06/15 08:56:07;;;;;;;5.50;2.40;;;;;;;33.10;21.30;100158.94;5051100;28;20177;-70
2022/06/15 08:58:32;;;;;;;7.07;2.40;;;;;;;33.97;20.94;100151.19;5043967;28;20192;-73
2022/06/15 09:01:08;;;;;;;9.50;2.50;;;;;;;34.15;20.56;100159.00;5043534;28;20221;-74
2022/06/15 09:03:52;;;;;;;9.45;2.40;;;;;;;33.55;21.51;100154.88;5055520;28;20938;-74
2022/06/15 09:06:47;;;;;;;10.02;2.08;;;;;;;33.71;21.37;100156.00;5055994;28;20184;-71
2022/06/15 09:09:41;;;;;;;6.50;2.20;;;;;;;33.79;20.75;100156.44;5055157;28;20263;-70
2022/06/15 09:15:01;;;;;;;6.18;2.47;;;;;;;34.37;20.14;100148.47;5054449;28;20298;-72
2022/06/15 09:17:28;;;;;;;5.65;2.20;;;;;;;33.27;21.16;100157.19;5054687;28;20192;-69
2022/06/15 09:20:08;;;;;;;3.33;2.05;;;;;;;32.51;21.93;100147.16;5053385;28;20267;-73
2022/06/15 09:23:10;;;;;;;6.25;2.17;;;;;;;33.67;20.82;100155.66;5043862;28;20241;-70
2022/06/15 09:25:41;;;;;;;7.28;2.55;;;;;;;36.25;18.90;100153.41;5051392;28;20207;-71
2022/06/15 09:28:20;;;;;;;7.30;3.03;;;;;;;36.28;18.88;100159.09;5052720;28;20308;-69
2022/06/15 09:30:46;;;;;;;4.63;2.33;;;;;;;36.33;18.50;100167.16;5042776;28;20615;-69
2022/06/15 09:33:18;;;;;;;5.15;2.20;;;;;;;37.37;17.30;100155.31;5061245;28;20248;-68
2022/06/15 09:35:50;;;;;;;7.82;2.20;;;;;;;37.68;18.17;100155.44;5064890;28;20193;-69
2022/06/15 09:38:16;;;;;;;5.80;2.10;;;;;;;38.56;16.43;100155.63;5054321;28;20182;-70
2022/06/15 09:40:59;;;;;;;9.30;2.53;;;;;;;37.69;16.73;100154.38;5043871;28;20232;-70
2022/06/15 09:43:25;;;;;;;6.40;2.30;;;;;;;36.34;17.97;100151.88;5048209;28;20239;-69
2022/06/15 09:46:13;;;;;;;5.87;2.37;;;;;;;35.31;19.10;100143.47;5055292;28;20185;-71
2022/06/15 09:48:49;;;;;;;7.85;2.45;;;;;;;35.07;19.69;100145.56;5052210;28;20428;-71
2022/06/15 09:51:16;;;;;;;5.35;1.80;;;;;;;35.34;19.28;100142.19;5032117;28;20221;-70
2022/06/15 09:54:00;;;;;;;5.22;2.10;;;;;;;36.10;18.51;100143.38;5039006;28;20243;-71
2022/06/15 09:56:26;;;;;;;4.97;2.22;;;;;;;36.39;17.74;100143.91;5054123;28;20181;-70
2022/06/15 09:59:12;;;;;;;3.65;2.00;;;;;;;36.49;18.50;100140.53;5054646;28;20177;-75
2022/06/15 10:01:41;;;;;;;9.75;2.55;;;;;;;36.28;17.77;100140.34;5033014;28;20225;-72
2022/06/15 10:04:15;;;;;;;5.28;2.00;;;;;;;35.42;18.87;100135.63;5051348;28;20219;-72
2022/06/15 10:07:13;;;;;;;5.72;2.30;;;;;;;34.63;19.50;100138.19;5054322;28;20695;-74
2022/06/15 10:09:44;;;;;;;4.40;1.75;;;;;;;36.77;17.53;100131.34;5010581;28;20675;-73
2022/06/15 10:12:56;;;;;;;5.13;2.30;;;;;;;35.91;18.02;100143.72;5001404;28;20226;-71
2022/06/15 10:15:42;;;;;;;5.30;2.17;;;;;;;36.35;17.91;100145.47;5010190;28;20183;-71
2022/06/15 10:18:19;;;;;;;6.30;2.92;;;;;;;38.87;16.32;100131.41;5001898;28;20217;-72
2022/06/15 10:21:14;;;;;;;2.97;2.08;;;;;;;40.03;14.46;100140.34;4991998;28;20698;-72
2022/06/15 10:23:55;;;;;;;8.68;4.03;;;;;;;39.10;15.43;100137.25;5003375;28;20195;-71
2022/06/15 10:26:29;;;;;;;2.90;2.08;;;;;;;36.23;17.25;100132.22;5005449;28;20265;-71
2022/06/15 10:28:56;;;;;;;3.80;2.20;;;;;;;35.49;18.54;100130.88;4996744;28;20659;-71
2022/06/15 10:31:32;;;;;;;6.38;2.95;;;;;;;35.81;17.93;100138.22;4988823;28;20309;-71
2022/06/15 10:34:16;;;;;;;3.85;2.28;;;;;;;35.27;17.62;100134.34;5003129;28;20199;-73
2022/06/15 10:36:42;;;;;;;5.93;2.50;;;;;;;36.91;16.75;100125.56;4993986;28;20186;-69
2022/06/15 10:39:24;;;;;;;4.72;2.22;;;;;;;36.98;16.59;100129.63;5002042;28;20720;-70
2022/06/15 10:41:50;;;;;;;3.63;2.38;;;;;;;36.27;17.50;100132.53;4998538;28;20309;-69
2022/06/15 10:44:28;;;;;;;6.00;2.40;;;;;;;33.92;19.49;100123.34;5011840;28;20274;-68
2022/06/15 10:47:02;;;;;;;8.10;3.90;;;;;;;32.76;22.88;100116.06;5044642;28;20663;-70
2022/06/15 10:49:31;;;;;;;5.97;2.45;;;;;;;32.26;22.14;100106.59;5052118;28;20278;-70
2022/06/15 10:51:57;;;;;;;5.10;2.42;;;;;;;31.92;22.87;100112.34;5033134;28;20229;-70
2022/06/15 11:02:06;;;;;;;5.55;2.28;;;;;;;30.36;24.09;100111.31;5052083;28;20697;-70
2022/06/15 11:03:24;;;;;;;7.45;2.80;;;;;;;29.35;26.05;100091.56;5035234;28;20300;-72
2022/06/15 11:05:52;;;;;;;5.13;2.45;;;;;;;28.94;26.25;100090.81;5041131;28;20196;-71
2022/06/15 11:08:26;;;;;;;3.70;2.10;;;;;;;28.35;26.09;100090.53;5052887;28;20181;-73
2022/06/15 11:11:07;;;;;;;10.68;2.63;;;;;;;28.26;26.92;100089.09;5019743;28;20324;-70
2022/06/15 11:13:40;;;;;;;5.28;2.40;;;;;;;28.26;27.06;100081.16;5036759;28;20569;-71
2022/06/15 11:19:12;;;;;;;4.38;2.45;;;;;;;27.96;27.74;100084.09;5038970;28;20303;-70
2022/06/15 11:21:47;;;;;;;3.47;2.22;;;;;;;27.77;27.61;100083.81;5029418;28;20229;-71
2022/06/15 11:24:34;;;;;;;3.55;2.30;;;;;;;27.98;27.60;100079.44;5038574;28;20188;-71
2022/06/15 11:27:24;;;;;;;5.90;2.30;;;;;;;27.77;27.55;100075.91;5049768;28;20205;-71
2022/06/15 11:30:27;;;;;;;5.78;2.20;;;;;;;27.83;27.53;100076.94;5052399;28;20546;-72
2022/06/15 11:33:24;;;;;;;7.85;3.20;;;;;;;27.62;27.84;100080.53;5018327;28;20231;-72
2022/06/15 11:36:25;;;;;;;5.72;2.63;;;;;;;27.93;27.24;100076.56;5053131;28;20554;-70
2022/06/15 11:39:00;;;;;;;3.55;1.95;;;;;;;28.24;27.09;100067.31;5052973;28;20181;-70
2022/06/15 11:41:35;;;;;;;3.25;2.28;;;;;;;28.46;26.84;100063.47;5028863;28;20675;-67
2022/06/15 11:44:06;;;;;;;4.85;1.92;;;;;;;28.30;26.51;100064.69;5050798;28;20196;-71
2022/06/15 11:46:53;;;;;;;5.68;2.15;;;;;;;28.02;27.36;100068.28;5049638;28;20197;-69
2022/06/15 11:49:28;;;;;;;4.20;2.22;;;;;;;27.78;26.79;100063.50;5051072;28;20192;-71
2022/06/15 11:52:08;;;;;;;6.40;2.10;;;;;;;27.66;26.94;100057.97;5047784;28;20271;-73
2022/06/15 11:55:09;;;;;;;2.78;2.13;;;;;;;28.13;27.59;100063.44;5056547;28;20284;-69
2022/06/15 11:58:05;;;;;;;5.72;2.42;;;;;;;28.65;26.95;100058.41;5010530;28;20183;-69
2022/06/15 12:00:37;;;;;;;5.40;2.30;;;;;;;28.66;25.84;100055.53;5042269;28;20237;-71